createdAt,value
2023-02-13T00:00:35.501Z,11.02
2023-02-13T00:03:02.398Z,12.60
2023-02-13T00:05:29.172Z,13.85
2023-02-13T00:07:56.997Z,10.05
2023-02-13T00:10:24.102Z,14.88
2023-02-13T00:12:50.876Z,12.00
2023-02-13T00:15:17.672Z,10.00
2023-02-13T00:17:44.477Z,14.10
2023-02-13T00:20:12.287Z,11.68
2023-02-13T00:22:39.114Z,12.13
2023-02-13T00:25:07.479Z,11.30
2023-02-13T00:27:34.673Z,13.00
2023-02-13T00:30:01.453Z,13.40
2023-02-13T00:32:28.328Z,15.45
2023-02-13T00:34:55.676Z,14.52
2023-02-13T00:37:22.577Z,16.98
2023-02-13T00:39:49.353Z,15.57
2023-02-13T00:42:16.141Z,14.65
2023-02-13T00:44:42.931Z,15.02
2023-02-13T00:47:09.797Z,12.75
2023-02-13T00:49:42.038Z,12.38
2023-02-13T00:52:08.820Z,16.95
2023-02-13T00:54:35.696Z,12.73
2023-02-13T00:57:02.888Z,12.02
2023-02-13T00:59:29.681Z,13.98
2023-02-13T01:01:56.510Z,15.30
2023-02-13T01:04:23.335Z,15.98
2023-02-13T01:06:50.130Z,13.50
2023-02-13T01:09:16.912Z,14.07
2023-02-13T01:11:43.800Z,21.58
2023-02-13T01:14:10.585Z,14.23
2023-02-13T01:16:37.334Z,12.65
2023-02-13T01:19:05.597Z,17.77
2023-02-13T01:21:32.377Z,17.65
2023-02-13T01:24:03.429Z,16.13
2023-02-13T01:26:30.217Z,15.15
2023-02-13T01:28:58.027Z,13.23
2023-02-13T01:31:25.214Z,14.73
2023-02-13T01:33:52.594Z,15.50
2023-02-13T01:36:19.352Z,14.68
2023-02-13T01:38:46.210Z,14.60
2023-02-13T01:41:13.671Z,16.48
2023-02-13T01:43:59.336Z,15.80
2023-02-13T01:46:39.710Z,15.88
2023-02-13T01:49:18.556Z,14.98
2023-02-13T01:51:47.710Z,14.00
2023-02-13T01:54:19.605Z,16.02
2023-02-13T01:56:55.805Z,16.30
2023-02-13T01:59:51.368Z,18.95
2023-02-13T02:02:19.618Z,17.15
2023-02-13T02:04:47.846Z,16.90
2023-02-13T02:07:21.542Z,18.23
2023-02-13T02:09:49.293Z,16.27
2023-02-13T02:12:36.356Z,15.68
2023-02-13T02:15:05.325Z,18.48
2023-02-13T02:17:32.389Z,14.75
2023-02-13T02:20:23.053Z,15.68
2023-02-13T02:23:33.094Z,15.23
2023-02-13T02:26:58.317Z,14.93
2023-02-13T02:30:02.690Z,16.13
2023-02-13T02:32:58.060Z,19.17
2023-02-13T02:35:45.412Z,16.55
2023-02-13T02:38:37.244Z,16.20
2023-02-13T02:41:36.651Z,16.88
2023-02-13T02:44:42.920Z,18.05
2023-02-13T02:47:45.691Z,16.83
2023-02-13T02:50:27.302Z,16.65
2023-02-13T02:53:03.835Z,15.48
2023-02-13T02:55:50.388Z,16.35
2023-02-13T02:59:00.276Z,19.58
2023-02-13T03:01:48.734Z,15.30
2023-02-13T03:04:50.529Z,16.73
2023-02-13T03:07:20.178Z,19.67
2023-02-13T03:10:28.926Z,19.98
2023-02-13T03:13:23.713Z,19.52
2023-02-13T03:16:12.193Z,17.98
2023-02-13T03:19:03.193Z,16.17
2023-02-13T03:22:07.374Z,16.52
2023-02-13T03:24:45.319Z,15.30
2023-02-13T03:27:43.432Z,17.00
2023-02-13T03:30:33.622Z,15.50
2023-02-13T03:33:54.019Z,18.73
2023-02-13T03:36:52.268Z,17.98
2023-02-13T03:39:34.980Z,16.45
2023-02-13T03:42:06.951Z,14.00
2023-02-13T03:44:42.278Z,16.25
2023-02-13T03:47:11.718Z,18.50
2023-02-13T03:50:03.300Z,19.13
2023-02-13T03:52:50.931Z,20.05
2023-02-13T03:55:44.645Z,18.20
2023-02-13T03:58:47.143Z,17.00
2023-02-13T04:01:18.088Z,20.15
2023-02-13T04:04:10.857Z,16.27
2023-02-13T04:06:53.791Z,18.98
2023-02-13T04:09:20.643Z,21.17
2023-02-13T04:12:19.122Z,21.58
2023-02-13T04:14:59.994Z,17.48
2023-02-13T04:17:49.700Z,19.38
2023-02-13T04:20:16.784Z,16.92
2023-02-13T04:22:45.665Z,16.90
2023-02-13T04:25:15.979Z,18.27
2023-02-13T04:27:43.280Z,16.48
2023-02-13T04:30:11.027Z,17.88
2023-02-13T04:32:37.776Z,16.42
2023-02-13T04:35:04.772Z,16.20
2023-02-13T04:37:31.546Z,19.70
2023-02-13T04:39:58.301Z,17.40
2023-02-13T04:42:25.112Z,15.50
2023-02-13T04:44:51.909Z,18.23
2023-02-13T04:47:18.652Z,22.20
2023-02-13T04:49:45.417Z,22.02
2023-02-13T04:52:12.212Z,18.30
2023-02-13T04:54:38.991Z,18.73
2023-02-13T04:57:05.793Z,21.02
2023-02-13T04:59:32.561Z,20.25
2023-02-13T05:01:59.386Z,19.52
2023-02-13T05:04:26.276Z,20.20
2023-02-13T05:06:53.175Z,17.92
2023-02-13T05:09:19.953Z,18.10
2023-02-13T05:11:46.752Z,19.80
2023-02-13T05:14:13.915Z,17.95
2023-02-13T05:16:40.686Z,21.25
2023-02-13T05:19:07.495Z,17.10
2023-02-13T05:21:52.572Z,18.08
2023-02-13T05:24:20.578Z,15.75
2023-02-13T05:26:47.529Z,16.83
2023-02-13T05:29:20.526Z,15.15
2023-02-13T05:31:50.921Z,18.40
2023-02-13T05:34:17.755Z,16.35
2023-02-13T05:36:44.922Z,19.45
2023-02-13T05:39:11.688Z,16.58
2023-02-13T05:41:38.462Z,20.25
2023-02-13T05:44:05.727Z,17.30
2023-02-13T05:46:32.669Z,17.85
2023-02-13T05:48:59.815Z,18.00
2023-02-13T05:51:26.591Z,19.25
2023-02-13T05:53:53.403Z,17.48
2023-02-13T05:56:20.193Z,18.05
2023-02-13T05:58:46.980Z,21.63
2023-02-13T06:01:13.884Z,18.48
2023-02-13T06:03:40.684Z,18.40
2023-02-13T06:06:07.520Z,19.00
2023-02-13T06:08:34.332Z,21.90
2023-02-13T06:11:01.742Z,16.80
2023-02-13T06:13:28.772Z,19.85
2023-02-13T06:15:55.739Z,17.73
2023-02-13T06:18:23.179Z,17.13
2023-02-13T06:20:49.974Z,18.00
2023-02-13T06:23:18.051Z,16.70
2023-02-13T06:25:44.814Z,16.02
2023-02-13T06:28:11.632Z,16.55
2023-02-13T06:30:38.533Z,16.42
2023-02-13T06:33:05.315Z,18.55
2023-02-13T06:35:32.290Z,15.30
2023-02-13T06:37:59.058Z,18.80
2023-02-13T06:40:25.836Z,19.08
2023-02-13T06:42:52.678Z,18.15
2023-02-13T06:45:19.448Z,16.65
2023-02-13T06:47:48.425Z,17.38
2023-02-13T06:50:16.850Z,19.20
2023-02-13T06:52:51.682Z,15.68
2023-02-13T06:55:20.666Z,15.52
2023-02-13T06:57:47.933Z,16.25
2023-02-13T07:00:17.026Z,14.35
2023-02-13T07:02:45.961Z,14.32
2023-02-13T07:05:13.239Z,13.15
2023-02-13T07:07:42.066Z,15.07
2023-02-13T07:10:13.091Z,11.88
2023-02-13T07:12:40.116Z,13.88
2023-02-13T07:15:08.052Z,11.40
2023-02-13T07:17:35.059Z,14.23
2023-02-13T07:20:02.147Z,15.20
2023-02-13T07:22:31.190Z,14.07
2023-02-13T07:24:58.993Z,20.50
2023-02-13T07:27:29.099Z,13.80
2023-02-13T07:29:57.464Z,13.40
2023-02-13T07:32:25.590Z,14.90
2023-02-13T07:35:01.368Z,14.27
2023-02-13T07:37:31.330Z,12.45
2023-02-13T07:39:58.181Z,12.77
2023-02-13T07:42:25.108Z,12.85
2023-02-13T07:44:51.924Z,15.13
2023-02-13T07:47:20.142Z,12.48
2023-02-13T07:49:47.147Z,10.90
2023-02-13T07:52:13.954Z,10.88
2023-02-13T07:54:47.141Z,13.77
2023-02-13T07:57:17.732Z,11.83
2023-02-13T07:59:45.324Z,12.60
2023-02-13T08:02:14.210Z,10.85
2023-02-13T08:04:41.662Z,9.65
2023-02-13T08:07:08.481Z,11.48
2023-02-13T08:09:53.692Z,10.23
2023-02-13T08:12:20.883Z,12.60
2023-02-13T08:14:47.740Z,10.93
2023-02-13T08:17:14.590Z,11.02
2023-02-13T08:19:41.349Z,10.95
2023-02-13T08:22:08.106Z,11.23
2023-02-13T08:24:34.971Z,9.55
2023-02-13T08:27:01.722Z,8.85
2023-02-13T08:29:28.514Z,11.93
2023-02-13T08:31:55.368Z,9.43
2023-02-13T08:34:22.147Z,9.77
2023-02-13T08:36:48.997Z,8.63
2023-02-13T08:39:15.734Z,9.20
2023-02-13T08:41:43.418Z,10.93
2023-02-13T08:44:11.256Z,9.07
2023-02-13T08:46:38.148Z,7.72
2023-02-13T08:49:05.117Z,9.15
2023-02-13T08:51:32.861Z,8.48
2023-02-13T08:53:59.682Z,9.95
2023-02-13T08:56:26.476Z,9.77
2023-02-13T08:58:53.331Z,8.75
2023-02-13T09:01:20.163Z,8.48
2023-02-13T09:03:46.935Z,8.93
2023-02-13T09:06:13.962Z,9.80
2023-02-13T09:08:40.763Z,12.05
2023-02-13T09:11:07.632Z,9.20
2023-02-13T09:13:36.973Z,9.05
2023-02-13T09:16:06.863Z,8.75
2023-02-13T09:18:35.127Z,8.55
2023-02-13T09:21:08.093Z,8.85
2023-02-13T09:23:37.934Z,15.13
2023-02-13T09:26:07.932Z,9.02
2023-02-13T09:28:36.520Z,8.88
2023-02-13T09:31:09.582Z,10.30
2023-02-13T09:33:37.294Z,12.43
2023-02-13T09:36:10.192Z,9.98
2023-02-13T09:38:37.011Z,10.68
2023-02-13T09:41:11.198Z,8.57
2023-02-13T09:44:33.929Z,9.40
2023-02-13T09:47:31.812Z,7.72
2023-02-13T09:50:11.995Z,8.80
2023-02-13T09:52:39.750Z,9.20
2023-02-13T09:55:31.195Z,8.73
2023-02-13T09:58:41.926Z,8.40
2023-02-13T10:01:31.210Z,9.43
2023-02-13T10:04:41.638Z,9.30
2023-02-13T10:07:37.107Z,7.70
2023-02-13T10:10:44.646Z,7.50
2023-02-13T10:13:15.900Z,13.20
2023-02-13T10:15:56.892Z,12.57
2023-02-13T10:18:38.269Z,9.23
2023-02-13T10:21:07.327Z,8.13
2023-02-13T10:23:44.628Z,9.90
2023-02-13T10:26:23.985Z,9.10
2023-02-13T10:29:25.915Z,8.15
2023-02-13T10:31:55.840Z,11.68
2023-02-13T10:34:27.242Z,13.02
2023-02-13T10:36:54.385Z,7.50
2023-02-13T10:39:30.309Z,11.32
2023-02-13T10:42:22.596Z,7.40
2023-02-13T10:45:20.439Z,11.20
2023-02-13T10:48:15.853Z,12.15
2023-02-13T10:51:16.240Z,7.47
2023-02-13T10:53:54.124Z,11.60
2023-02-13T11:00:14.569Z,7.70
2023-02-13T11:02:41.330Z,7.28
2023-02-13T11:05:18.377Z,9.48
2023-02-13T11:07:49.364Z,7.90
2023-02-13T11:10:17.593Z,7.75
2023-02-13T11:12:44.793Z,9.13
2023-02-13T11:15:29.678Z,7.85
2023-02-13T11:18:17.169Z,9.48
2023-02-13T11:20:47.907Z,10.20
2023-02-13T11:23:29.609Z,7.43
2023-02-13T11:26:09.073Z,7.20
2023-02-13T11:28:49.299Z,10.50
2023-02-13T11:31:24.135Z,8.20
2023-02-13T11:33:51.466Z,8.27
2023-02-13T11:36:30.092Z,8.75
2023-02-13T11:39:06.297Z,9.30
2023-02-13T11:41:42.688Z,10.30
2023-02-13T11:44:28.351Z,10.68
2023-02-13T11:46:59.545Z,6.72
2023-02-13T11:49:33.582Z,9.00
2023-02-13T11:52:17.218Z,6.40
2023-02-13T11:54:44.981Z,7.18
2023-02-13T11:57:34.691Z,7.07
2023-02-13T12:00:30.888Z,5.55
2023-02-13T12:02:57.954Z,6.88
2023-02-13T12:05:28.034Z,6.95
2023-02-13T12:08:01.602Z,6.43
2023-02-13T12:10:31.580Z,5.85
2023-02-13T12:13:11.782Z,6.22
2023-02-13T12:15:38.824Z,6.40
2023-02-13T12:18:05.469Z,6.45
2023-02-13T12:21:00.907Z,4.53
2023-02-13T12:23:43.684Z,5.90
2023-02-13T12:26:34.067Z,5.00
2023-02-13T12:29:20.675Z,4.00
2023-02-13T12:32:11.158Z,5.13
2023-02-13T12:35:21.936Z,5.43
2023-02-13T12:38:22.572Z,5.35
2023-02-13T12:41:07.513Z,5.28
2023-02-13T12:43:56.219Z,4.43
2023-02-13T12:47:07.270Z,5.97
2023-02-13T12:50:34.083Z,5.78
2023-02-13T12:53:43.607Z,4.05
2023-02-13T12:56:32.369Z,5.82
2023-02-13T12:59:30.143Z,6.72
2023-02-13T13:02:15.220Z,7.57
2023-02-13T13:05:14.971Z,5.85
2023-02-13T13:08:20.875Z,6.70
2023-02-13T13:10:55.014Z,4.35
2023-02-13T13:13:52.677Z,3.83
2023-02-13T13:16:42.943Z,4.70
2023-02-13T13:19:30.800Z,4.22
2023-02-13T13:22:25.829Z,7.22
2023-02-13T13:27:49.607Z,4.90
2023-02-13T13:30:26.260Z,6.13
2023-02-13T13:33:33.277Z,4.30
2023-02-13T13:36:40.104Z,6.50
2023-02-13T13:39:43.092Z,4.75
2023-02-13T13:42:43.077Z,6.40
2023-02-13T13:45:25.254Z,5.75
2023-02-13T13:48:37.517Z,6.40
2023-02-13T13:51:07.433Z,6.07
2023-02-13T13:53:34.200Z,8.43
2023-02-13T13:56:05.855Z,6.65
2023-02-13T13:58:45.953Z,6.57
2023-02-13T14:01:23.313Z,7.70
2023-02-13T14:04:24.366Z,8.65
2023-02-13T14:06:50.989Z,6.50
2023-02-13T14:09:26.763Z,8.95
2023-02-13T14:11:56.512Z,6.28
2023-02-13T14:14:30.308Z,7.20
2023-02-13T14:16:58.641Z,5.80
2023-02-13T14:19:39.562Z,5.55
2023-02-13T14:22:37.590Z,7.82
2023-02-13T14:25:07.672Z,8.18
2023-02-13T14:27:38.136Z,8.20
2023-02-13T14:30:38.307Z,6.05
2023-02-13T14:33:09.237Z,8.18
2023-02-13T14:35:38.713Z,7.10
2023-02-13T14:38:08.089Z,5.88
2023-02-13T14:40:52.926Z,7.38
2023-02-13T14:43:49.271Z,7.70
2023-02-13T14:46:27.505Z,8.60
2023-02-13T14:49:16.488Z,9.10
2023-02-13T14:51:52.024Z,7.72
2023-02-13T14:54:39.487Z,9.07
2023-02-13T14:57:17.831Z,9.38
2023-02-13T14:59:50.379Z,9.00
2023-02-13T15:02:31.275Z,8.50
2023-02-13T15:05:06.908Z,7.28
2023-02-13T15:07:45.312Z,8.93
2023-02-13T15:10:44.177Z,7.60
2023-02-13T15:13:18.349Z,9.70
2023-02-13T15:15:52.915Z,10.18
2023-02-13T15:18:31.085Z,10.00
2023-02-13T15:21:00.798Z,8.82
2023-02-13T15:23:33.454Z,7.55
2023-02-13T15:26:03.835Z,11.75
2023-02-13T15:28:31.712Z,7.45
2023-02-13T15:31:23.556Z,7.30
2023-02-13T15:33:51.924Z,8.55
2023-02-13T15:36:25.532Z,7.40
2023-02-13T15:39:09.528Z,8.18
2023-02-13T15:41:41.035Z,7.78
2023-02-13T15:44:08.014Z,11.00
2023-02-13T15:46:38.428Z,7.75
2023-02-13T15:49:08.767Z,7.95
2023-02-13T15:51:35.993Z,7.57
2023-02-13T15:54:07.792Z,4.47
2023-02-13T15:56:35.496Z,8.25
2023-02-13T15:59:03.539Z,4.32
2023-02-13T16:01:32.017Z,5.13
2023-02-13T16:04:06.946Z,6.05
2023-02-13T16:06:34.434Z,5.25
2023-02-13T16:09:01.905Z,4.88
2023-02-13T16:11:32.467Z,8.02
2023-02-13T16:14:24.680Z,5.28
2023-02-13T16:16:56.896Z,6.53
2023-02-13T16:19:51.109Z,6.82
2023-02-13T16:22:38.685Z,7.53
2023-02-13T16:25:38.935Z,5.80
2023-02-13T16:28:20.887Z,4.30
2023-02-13T16:31:00.558Z,5.18
2023-02-13T16:33:33.949Z,5.70
2023-02-13T16:36:10.577Z,4.65
2023-02-13T16:38:44.963Z,8.32
2023-02-13T16:41:17.851Z,4.82
2023-02-13T16:43:53.209Z,5.95
2023-02-13T16:46:27.705Z,4.28
2023-02-13T16:48:57.492Z,4.93
2023-02-13T16:51:30.121Z,6.82
2023-02-13T16:54:01.959Z,8.45
2023-02-13T16:56:37.223Z,7.00
2023-02-13T16:59:32.654Z,5.88
2023-02-13T17:02:10.806Z,6.80
2023-02-13T17:04:39.152Z,7.35
2023-02-13T17:07:14.052Z,8.55
2023-02-13T17:09:41.003Z,7.85
2023-02-13T17:12:15.541Z,6.28
2023-02-13T17:14:42.883Z,6.68
2023-02-13T17:17:18.153Z,8.52
2023-02-13T17:19:45.353Z,7.60
2023-02-13T17:22:43.595Z,9.45
2023-02-13T17:25:28.708Z,8.32
2023-02-13T17:27:59.375Z,6.20
2023-02-13T17:30:30.634Z,6.65
2023-02-13T17:33:24.946Z,8.65
2023-02-13T17:35:52.432Z,6.68
2023-02-13T17:38:19.807Z,9.98
2023-02-13T17:40:47.215Z,7.30
2023-02-13T17:43:17.499Z,7.43
2023-02-13T17:45:45.798Z,9.77
2023-02-13T17:48:12.730Z,8.13
2023-02-13T17:50:39.863Z,8.45
2023-02-13T17:53:16.828Z,9.75
2023-02-13T17:55:43.613Z,7.75
2023-02-13T17:58:10.421Z,9.05
2023-02-13T18:00:37.228Z,11.30
2023-02-13T18:03:04.643Z,9.82
2023-02-13T18:05:33.046Z,8.35
2023-02-13T18:08:02.585Z,10.38
2023-02-13T18:10:33.645Z,12.38
2023-02-13T18:13:04.393Z,9.70
2023-02-13T18:15:35.401Z,11.73
2023-02-13T18:18:02.331Z,12.43
2023-02-13T18:20:29.107Z,10.23
2023-02-13T18:22:56.906Z,9.00
2023-02-13T18:25:23.865Z,9.50
2023-02-13T18:27:51.360Z,8.40
2023-02-13T18:30:20.657Z,12.30
2023-02-13T18:32:53.900Z,10.65
2023-02-13T18:35:22.546Z,6.55
2023-02-13T18:37:49.687Z,8.23
2023-02-13T18:40:17.522Z,10.55
2023-02-13T18:42:44.821Z,7.97
2023-02-13T18:45:12.120Z,8.82
2023-02-13T18:47:39.324Z,10.55
2023-02-13T18:50:07.497Z,11.32
2023-02-13T18:52:35.009Z,11.73
2023-02-13T18:55:01.835Z,9.80
2023-02-13T18:57:28.996Z,12.38
2023-02-13T18:59:55.911Z,12.82
2023-02-13T19:02:23.322Z,11.25
2023-02-13T19:04:50.251Z,11.60
2023-02-13T19:07:17.111Z,12.18
2023-02-13T19:09:44.425Z,10.10
2023-02-13T19:12:11.452Z,11.80
2023-02-13T19:14:39.531Z,10.93
2023-02-13T19:17:08.510Z,11.35
2023-02-13T19:19:35.462Z,11.27
2023-02-13T19:22:03.338Z,10.57
2023-02-13T19:24:30.302Z,10.80
2023-02-13T19:26:57.161Z,13.43
2023-02-13T19:29:23.978Z,10.95
2023-02-13T19:31:50.881Z,14.07
2023-02-13T19:34:17.682Z,15.40
2023-02-13T19:36:44.550Z,14.18
2023-02-13T19:39:11.665Z,15.07
2023-02-13T19:41:40.498Z,14.75
2023-02-13T19:44:09.608Z,14.80
2023-02-13T19:46:42.399Z,15.60
2023-02-13T19:49:13.954Z,17.02
2023-02-13T19:51:42.522Z,15.13
2023-02-13T19:54:13.527Z,15.48
2023-02-13T19:56:40.789Z,13.77
2023-02-13T19:59:13.664Z,15.18
2023-02-13T20:01:44.464Z,14.07
2023-02-13T20:04:16.290Z,18.63
2023-02-13T20:06:48.036Z,14.75
2023-02-13T20:09:15.134Z,17.27
2023-02-13T20:11:42.921Z,16.70
2023-02-13T20:14:14.950Z,15.50
2023-02-13T20:16:42.978Z,13.88
2023-02-13T20:19:12.115Z,16.48
2023-02-13T20:21:41.810Z,14.93
2023-02-13T20:24:10.335Z,14.27
2023-02-13T20:26:38.810Z,17.80
2023-02-13T20:29:06.136Z,15.25
2023-02-13T20:31:34.665Z,15.90
2023-02-13T20:34:02.281Z,16.55
2023-02-13T20:36:31.165Z,15.65
2023-02-13T20:39:02.546Z,17.70
2023-02-13T20:41:33.329Z,17.58
2023-02-13T20:44:03.788Z,16.90
2023-02-13T20:46:33.355Z,17.98
2023-02-13T20:49:00.314Z,22.17
2023-02-13T20:51:27.468Z,16.55
2023-02-13T20:53:55.324Z,15.00
2023-02-13T20:56:24.692Z,16.48
2023-02-13T20:58:55.762Z,16.02
2023-02-13T21:01:33.312Z,18.20
2023-02-13T21:04:00.722Z,18.98
2023-02-13T21:06:47.091Z,16.10
2023-02-13T21:09:17.731Z,15.98
2023-02-13T21:11:47.597Z,17.10
2023-02-13T21:14:17.766Z,15.93
2023-02-13T21:16:46.962Z,14.77
2023-02-13T21:19:17.673Z,14.88
2023-02-13T21:21:45.446Z,16.38
2023-02-13T21:24:33.768Z,19.73
2023-02-13T21:27:17.939Z,19.27
2023-02-13T21:29:44.948Z,18.92
2023-02-13T21:32:11.913Z,18.95
2023-02-13T21:34:44.342Z,15.68
2023-02-13T21:37:11.162Z,17.05
2023-02-13T21:39:38.037Z,17.63
2023-02-13T21:42:05.012Z,17.80
2023-02-13T21:44:31.854Z,17.45
2023-02-13T21:46:58.663Z,17.38
2023-02-13T21:49:25.658Z,14.65
2023-02-13T21:51:57.522Z,14.95
2023-02-13T21:54:24.306Z,16.98
2023-02-13T21:56:51.083Z,19.65
2023-02-13T22:02:05.317Z,15.95
2023-02-13T22:04:32.145Z,16.48
2023-02-13T22:06:58.936Z,17.70
2023-02-13T22:09:33.227Z,16.13
2023-02-13T22:12:23.258Z,17.85
2023-02-13T22:14:50.589Z,17.15
2023-02-13T22:17:41.172Z,20.35
2023-02-13T22:20:16.845Z,18.45
2023-02-13T22:22:44.952Z,21.08
2023-02-13T22:27:57.720Z,17.23
2023-02-13T22:30:29.849Z,19.60
2023-02-13T22:33:10.274Z,17.52
2023-02-13T22:35:42.094Z,17.33
2023-02-13T22:38:10.994Z,16.27
2023-02-13T22:40:39.149Z,18.33
2023-02-13T22:43:06.524Z,18.48
2023-02-13T22:45:38.099Z,15.77
2023-02-13T22:48:11.731Z,18.73
2023-02-13T22:50:38.593Z,17.40
2023-02-13T22:53:12.683Z,17.85
2023-02-13T22:55:39.900Z,17.25
2023-02-13T22:58:06.897Z,16.98
2023-02-13T23:00:34.846Z,16.90
2023-02-13T23:03:01.696Z,16.88
2023-02-13T23:05:28.607Z,18.80
2023-02-13T23:07:55.581Z,17.48
2023-02-13T23:10:29.199Z,19.45
2023-02-13T23:17:16.068Z,17.00
2023-02-13T23:19:42.964Z,15.73
2023-02-13T23:22:12.465Z,19.83
2023-02-13T23:24:40.301Z,17.95
2023-02-13T23:29:50.972Z,13.68
2023-02-13T23:32:55.668Z,17.88
2023-02-13T23:35:30.008Z,17.15
2023-02-13T23:40:43.296Z,17.98
2023-02-13T23:43:15.390Z,18.83
2023-02-13T23:45:53.884Z,16.38
2023-02-13T23:48:27.619Z,19.08
2023-02-13T23:56:54.098Z,17.50
